Weather History for Huntingburg, IN

Change the Weather History Date:

Monday, January 21, 2013

  Actual Average Record
Temperature  
Mean Temperature 22 °F -  
Max Temperature 28 °F 36 °F 64 °F (1999)
Min Temperature 15 °F 22 °F 1 °F (2011)
Degree Days  
Heating Degree Days 44    
Moisture  
Dew Point 9 °F    
Average Humidity 56    
Maximum Humidity 74    
Minimum Humidity 40    
Precipitation  
Precipitation 0.00 in - - ()
Sea Level Pressure  
Sea Level Pressure 30.26 in    
Wind  
Wind Speed 11 mph (WNW)    
Max Wind Speed 22 mph    
Max Gust Speed 29 mph    
Visibility 10 miles    
Events      
Averages and records for this station are not official NWS values.
T = Trace of Precipitation, MM = Missing Value Source: NWS Daily Summary

Daily Weather History Graph

Daily Weather History Graph

Search for Another Location

Airport:

Trip Planner

Search our weather history database for the weather conditions in past years. The results will help you decide how hot, cold, wet, or windy it might be!

Date:

Astronomy

Jan. 21, 2013 Rise Set
Actual Time 8:00 AM EST 5:58 PM EST
Civil Twilight 7:31 AM EST 6:26 PM EST
Nautical Twilight 6:59 AM EST 6:59 PM EST
Astronomical Twilight 6:28 AM EST 7:30 PM EST
Moon 1:38 PM EST 3:28 AM EST
Length of Visible Light 10h 55m
Length of Day
9h 58m
Waxing Gibbous, 75% of the Moon is Illuminated
Jan 21
Waxing Gibbous
Jan 26
Full
Feb 3
Last Quarter
Feb 10
New
Feb 17
First Quarter

Hourly Weather History & Observations

Time (EST) Temp. Windchill Dew Point Humidity Pressure Visibility Wind Dir Wind Speed Gust Speed Precip Events Conditions
12:15 AM 26.6 °F 19.1 °F 15.8 °F 64% 30.23 in 10.0 mi NNW 6.9 mph - N/A   Overcast
12:35 AM 26.6 °F 19.1 °F 15.8 °F 64% 30.23 in 10.0 mi NNW 6.9 mph - N/A   Mostly Cloudy
12:55 AM 26.6 °F 20.0 °F 15.8 °F 64% 30.22 in 10.0 mi North 5.8 mph - N/A   Partly Cloudy
1:15 AM 24.8 °F 17.9 °F 15.8 °F 69% 30.21 in 10.0 mi NNW 5.8 mph - N/A   Clear
1:35 AM 24.8 °F 20.5 °F 15.8 °F 69% 30.21 in 10.0 mi NW 3.5 mph - N/A   Clear
1:55 AM 24.8 °F 19.1 °F 15.8 °F 69% 30.20 in 10.0 mi NW 4.6 mph - N/A   Clear
2:15 AM 24.8 °F 19.1 °F 15.8 °F 69% 30.20 in 10.0 mi NNW 4.6 mph - N/A   Clear
2:35 AM 24.8 °F 19.1 °F 15.8 °F 69% 30.21 in 10.0 mi NW 4.6 mph - N/A   Clear
2:55 AM 24.8 °F 19.1 °F 15.8 °F 69% 30.21 in 10.0 mi West 4.6 mph - N/A   Partly Cloudy
3:15 AM 24.8 °F 17.9 °F 17.6 °F 74% 30.22 in 10.0 mi West 5.8 mph - N/A   Mostly Cloudy
3:35 AM 24.8 °F 17.9 °F 17.6 °F 74% 30.22 in 10.0 mi WNW 5.8 mph - N/A   Mostly Cloudy
3:55 AM 24.8 °F 16.1 °F 17.6 °F 74% 30.22 in 10.0 mi WNW 8.1 mph - N/A   Mostly Cloudy
4:15 AM 24.8 °F 15.3 °F 15.8 °F 69% 30.22 in 10.0 mi NW 9.2 mph - N/A   Overcast
4:35 AM 26.6 °F 16.8 °F 15.8 °F 64% 30.22 in 10.0 mi NW 10.4 mph - N/A   Overcast
4:55 AM 26.6 °F 16.8 °F 17.6 °F 69% 30.22 in 10.0 mi WNW 10.4 mph - N/A   Overcast
5:15 AM 26.6 °F 16.2 °F 15.8 °F 64% 30.22 in 10.0 mi NW 11.5 mph - N/A   Overcast
6:15 AM 24.8 °F 14.6 °F 15.8 °F 69% 30.23 in 10.0 mi WNW 10.4 mph - N/A   Scattered Clouds
6:35 AM 24.8 °F 14.0 °F 15.8 °F 69% 30.23 in 10.0 mi NW 11.5 mph - N/A   Mostly Cloudy
6:55 AM 23.0 °F 13.1 °F 14.0 °F 68% 30.23 in 10.0 mi WNW 9.2 mph - N/A   Scattered Clouds
7:15 AM 23.0 °F 10.6 °F 15.8 °F 74% 30.24 in 10.0 mi WNW 13.8 mph - N/A   Partly Cloudy
7:35 AM 21.2 °F 8.3 °F 14.0 °F 74% 30.25 in 10.0 mi WNW 13.8 mph - N/A   Partly Cloudy
7:55 AM 21.2 °F 9.5 °F 14.0 °F 74% 30.25 in 10.0 mi WNW 11.5 mph - N/A   Clear
8:15 AM 21.2 °F 10.1 °F 14.0 °F 74% 30.26 in 10.0 mi WNW 10.4 mph - N/A   Scattered Clouds
8:35 AM 23.0 °F 10.6 °F 14.0 °F 68% 30.26 in 10.0 mi WNW 13.8 mph - N/A   Overcast
8:55 AM 23.0 °F 10.6 °F 14.0 °F 68% 30.26 in 10.0 mi West 13.8 mph - N/A   Mostly Cloudy
9:15 AM 24.8 °F 13.4 °F 14.0 °F 64% 30.26 in 10.0 mi West 12.7 mph - N/A   Clear
9:35 AM 24.8 °F 12.4 °F 12.2 °F 59% 30.26 in 10.0 mi West 15.0 mph - N/A   Clear
9:55 AM 23.0 °F 11.1 °F 10.4 °F 59% 30.25 in 10.0 mi West 12.7 mph - N/A   Clear
10:15 AM 24.8 °F 11.5 °F 12.2 °F 59% 30.26 in 10.0 mi WNW 17.3 mph 20.7 mph N/A   Clear
10:35 AM 24.8 °F 11.1 °F 10.4 °F 54% 30.27 in 10.0 mi West 18.4 mph 23.0 mph N/A   Clear
10:55 AM 24.8 °F 11.5 °F 10.4 °F 54% 30.27 in 10.0 mi West 17.3 mph - N/A   Clear
11:15 AM 26.6 °F 14.3 °F 10.4 °F 51% 30.27 in 10.0 mi WNW 16.1 mph - N/A   Partly Cloudy
11:35 AM 26.6 °F 14.3 °F 10.4 °F 51% 30.27 in 10.0 mi WNW 16.1 mph - N/A   Partly Cloudy
11:55 AM 26.6 °F 13.8 °F 10.4 °F 51% 30.26 in 10.0 mi WNW 17.3 mph 23.0 mph N/A   Clear
12:15 PM 26.6 °F 13.8 °F 10.4 °F 51% 30.26 in 10.0 mi WNW 17.3 mph 25.3 mph N/A   Scattered Clouds
12:35 PM 26.6 °F 13.4 °F 8.6 °F 47% 30.25 in 10.0 mi West 18.4 mph 24.2 mph N/A   Partly Cloudy
12:55 PM 26.6 °F 15.2 °F 10.4 °F 51% 30.24 in 10.0 mi WNW 13.8 mph 25.3 mph N/A   Partly Cloudy
1:16 PM 26.6 °F 13.1 °F 10.4 °F 51% 30.24 in 10.0 mi WNW 19.6 mph 28.8 mph N/A   Scattered Clouds
1:35 PM 26.6 °F 12.7 °F 8.6 °F 47% 30.24 in 10.0 mi West 20.7 mph 28.8 mph N/A   Partly Cloudy
1:55 PM 28.4 °F 14.7 °F 8.6 °F 43% 30.25 in 10.0 mi West 21.9 mph 26.5 mph N/A   Clear
2:15 PM 26.6 °F 13.1 °F 6.8 °F 43% 30.25 in 10.0 mi West 19.6 mph 26.5 mph N/A   Clear
2:35 PM 26.6 °F 14.3 °F 6.8 °F 43% 30.25 in 10.0 mi WNW 16.1 mph 28.8 mph N/A   Clear
3:15 PM 26.6 °F 13.1 °F 5.0 °F 40% 30.26 in 10.0 mi WNW 19.6 mph - N/A   Clear
3:35 PM 26.6 °F 13.1 °F 5.0 °F 40% 30.27 in 10.0 mi WNW 19.6 mph 23.0 mph N/A   Clear
3:55 PM 26.6 °F 14.3 °F 6.8 °F 43% 30.27 in 10.0 mi West 16.1 mph 24.2 mph N/A   Scattered Clouds
4:15 PM 24.8 °F 11.1 °F 5.0 °F 43% 30.28 in 10.0 mi WNW 18.4 mph 25.3 mph N/A   Partly Cloudy
4:35 PM 24.8 °F 10.0 °F 5.0 °F 43% 30.28 in 10.0 mi WNW 21.9 mph 26.5 mph N/A   Clear
4:55 PM 24.8 °F 11.1 °F 3.2 °F 40% 30.28 in 10.0 mi WNW 18.4 mph 27.6 mph N/A   Clear
5:15 PM 23.0 °F 7.6 °F 3.2 °F 43% 30.28 in 10.0 mi West 21.9 mph - N/A   Clear
5:35 PM 21.2 °F 6.4 °F 3.2 °F 46% 30.29 in 10.0 mi WNW 18.4 mph - N/A   Clear
5:55 PM 21.2 °F 7.8 °F 3.2 °F 46% 30.29 in 10.0 mi WNW 15.0 mph - N/A   Clear
6:15 PM 21.2 °F 9.5 °F 1.4 °F 42% 30.29 in 10.0 mi NW 11.5 mph - N/A   Clear
6:35 PM 21.2 °F 8.3 °F 3.2 °F 46% 30.29 in 10.0 mi WNW 13.8 mph - N/A   Mostly Cloudy
6:55 PM 19.4 °F 4.1 °F 1.4 °F 46% 30.30 in 10.0 mi WNW 18.4 mph 23.0 mph N/A   Overcast
7:15 PM 19.4 °F 5.0 °F 1.4 °F 46% 30.31 in 10.0 mi NW 16.1 mph 23.0 mph N/A   Scattered Clouds
7:35 PM 19.4 °F 5.0 °F 1.4 °F 46% 30.31 in 10.0 mi WNW 16.1 mph 19.6 mph N/A   Mostly Cloudy
7:55 PM 19.4 °F 5.5 °F 1.4 °F 46% 30.31 in 10.0 mi NW 15.0 mph 20.7 mph N/A   Overcast
8:15 PM 19.4 °F 7.2 °F 1.4 °F 46% 30.31 in 10.0 mi NW 11.5 mph 17.3 mph N/A   Overcast
8:35 PM 19.4 °F 7.2 °F 1.4 °F 46% 30.31 in 10.0 mi NW 11.5 mph - N/A   Overcast
8:55 PM 19.4 °F 6.6 °F 3.2 °F 49% 30.32 in 10.0 mi NW 12.7 mph - N/A   Overcast
9:15 PM 19.4 °F 5.5 °F 1.4 °F 46% 30.32 in 10.0 mi NW 15.0 mph 19.6 mph N/A   Overcast
9:35 PM 19.4 °F 7.2 °F 1.4 °F 46% 30.33 in 10.0 mi NW 11.5 mph 16.1 mph N/A   Overcast
9:55 PM 17.6 °F 4.3 °F 1.4 °F 49% 30.33 in 10.0 mi NW 12.7 mph - N/A   Overcast
10:15 PM 17.6 °F 3.2 °F 1.4 °F 49% 30.33 in 10.0 mi NW 15.0 mph - N/A   Scattered Clouds
10:35 PM 17.6 °F 7.3 °F 1.4 °F 49% 30.33 in 10.0 mi NW 8.1 mph - N/A   Clear
10:55 PM 15.8 °F 3.4 °F 1.4 °F 53% 30.33 in 10.0 mi NW 10.4 mph - N/A   Clear
11:35 PM 15.8 °F 0.9 °F 1.4 °F 53% 30.33 in 10.0 mi NW 15.0 mph - N/A   Clear
11:55 PM 15.8 °F 2.7 °F -0.4 °F 49% 30.34 in 10.0 mi NNW 11.5 mph 19.6 mph N/A   Clear